Time;durP1;ratioP1;P1;durP2;ratioP2;P2;SDS_P1;SDS_P2;PMS_P1;PMS_P2;Temp;Humidity;BMP_temperature;BMP_pressure;BME280_temperature;BME280_humidity;BME280_pressure;Samples;Min_cycle;Max_cycle;Signal;HPM_P1;HPM_P2
2021/12/31 00:02:08;;;;;;;21.45;3.13;;;;;;;20.89;57.61;99520.97;7312851;19;158570;-37
2021/12/31 00:04:33;;;;;;;9.82;1.52;;;;;;;20.85;57.37;99523.03;7311150;19;158382;-39
2021/12/31 00:06:59;;;;;;;14.50;2.00;;;;;;;20.85;57.58;99523.03;7309793;19;155186;-36
2021/12/31 00:09:24;;;;;;;12.00;1.88;;;;;;;20.88;57.88;99517.53;7311563;19;129440;-36
2021/12/31 00:11:49;;;;;;;12.33;1.73;;;;;;;20.98;57.64;99514.94;7310484;19;158394;-38
2021/12/31 00:14:15;;;;;;;10.15;1.52;;;;;;;21.14;56.72;99513.41;7313454;19;130380;-37
2021/12/31 00:16:41;;;;;;;20.60;3.08;;;;;;;21.25;56.67;99521.13;7311982;19;128994;-37
2021/12/31 00:19:06;;;;;;;16.35;2.50;;;;;;;21.34;56.47;99507.22;7311451;19;129061;-39
2021/12/31 00:21:36;;;;;;;8.05;1.15;;;;;;;21.57;55.47;99516.38;7313695;19;129058;-40
2021/12/31 00:24:02;;;;;;;23.50;3.60;;;;;;;21.65;55.96;99510.47;7312061;19;130412;-39
2021/12/31 00:26:27;;;;;;;18.60;2.47;;;;;;;21.78;55.25;99506.56;7308239;19;129411;-37
2021/12/31 00:28:52;;;;;;;28.95;4.63;;;;;;;21.87;55.14;99517.97;7306942;19;143034;-36
2021/12/31 00:31:18;;;;;;;20.65;3.42;;;;;;;21.95;54.55;99508.44;7296278;19;158646;-36
2021/12/31 00:33:43;;;;;;;13.27;2.05;;;;;;;21.98;54.53;99508.16;7307196;19;158671;-38
2021/12/31 00:36:08;;;;;;;15.45;2.20;;;;;;;22.00;54.05;99489.69;7310998;19;154874;-39
2021/12/31 00:38:33;;;;;;;12.73;1.67;;;;;;;22.12;54.05;99503.41;7310828;19;130005;-37
2021/12/31 00:40:59;;;;;;;14.10;1.88;;;;;;;22.18;53.86;99505.47;7310820;19;129165;-41
2021/12/31 00:43:24;;;;;;;11.23;1.90;;;;;;;22.12;54.02;99503.41;7311570;19;129345;-39
2021/12/31 00:45:49;;;;;;;17.93;2.67;;;;;;;22.07;53.86;99496.00;7308071;19;154755;-36
2021/12/31 00:48:15;;;;;;;12.38;2.08;;;;;;;22.07;54.26;99509.09;7308005;19;154538;-36
2021/12/31 00:50:40;;;;;;;5.78;1.13;;;;;;;22.05;54.56;99508.41;7312430;19;130647;-36
2021/12/31 00:53:07;;;;;;;22.67;2.83;;;;;;;21.94;54.95;99519.06;7311403;19;130976;-39
2021/12/31 00:55:32;;;;;;;3.70;0.73;;;;;;;21.86;54.78;99513.72;7311686;19;129423;-40
2021/12/31 00:57:57;;;;;;;10.50;1.88;;;;;;;21.82;55.33;99515.78;7311047;19;128696;-39
2021/12/31 01:00:23;;;;;;;11.85;1.63;;;;;;;21.76;54.98;99521.63;7310996;19;129284;-39
2021/12/31 01:02:48;;;;;;;14.38;2.10;;;;;;;21.70;55.75;99516.91;7312669;19;130264;-37
2021/12/31 01:05:15;;;;;;;5.20;0.93;;;;;;;21.67;55.75;99524.19;7309147;19;155144;-39
2021/12/31 01:07:40;;;;;;;13.88;1.90;;;;;;;21.64;55.42;99533.16;7310942;19;128842;-39
2021/12/31 01:10:12;;;;;;;15.38;2.22;;;;;;;21.59;56.13;99521.47;7308804;19;130558;-38
2021/12/31 01:12:37;;;;;;;13.88;2.05;;;;;;;21.54;55.75;99545.44;7311989;19;130936;-40
2021/12/31 01:15:08;;;;;;;16.90;2.28;;;;;;;21.53;55.97;99533.34;7311734;19;129095;-37
2021/12/31 01:18:14;;;;;;;14.13;2.17;;;;;;;21.52;56.39;99528.22;7311385;19;129756;-41
2021/12/31 01:20:31;;;;;;;14.85;1.92;;;;;;;21.46;56.22;99539.25;7309264;19;130213;-37
2021/12/31 01:22:56;;;;;;;15.77;1.95;;;;;;;21.42;56.37;99530.06;7311473;19;137553;-39
2021/12/31 01:25:21;;;;;;;11.40;1.58;;;;;;;21.38;56.23;99537.34;7310700;19;129167;-38
2021/12/31 01:27:47;;;;;;;19.17;2.70;;;;;;;21.29;56.32;99532.94;7309412;19;154144;-36
2021/12/31 01:30:13;;;;;;;10.40;1.60;;;;;;;21.38;56.44;99545.19;7309309;19;158227;-36
2021/12/31 01:32:40;;;;;;;;;;;;;;;21.29;56.87;99546.03;7310502;19;131337;-39
2021/12/31 01:35:06;;;;;;;16.85;2.38;;;;;;;21.30;56.44;99542.47;7311944;19;129204;-41
2021/12/31 01:37:32;;;;;;;10.30;2.22;;;;;;;21.25;57.22;99544.66;7310227;19;129057;-36
2021/12/31 01:39:57;;;;;;;13.90;1.77;;;;;;;21.26;57.18;99545.47;7310168;19;129910;-39
2021/12/31 01:42:29;;;;;;;12.27;1.70;;;;;;;21.22;57.45;99544.91;7311817;19;130266;-38
2021/12/31 01:44:58;;;;;;;15.05;2.05;;;;;;;21.19;56.97;99550.44;7311836;19;129833;-39
2021/12/31 01:47:33;;;;;;;15.80;2.47;;;;;;;21.08;57.52;99534.88;7306631;19;129648;-39
2021/12/31 01:50:01;;;;;;;10.35;1.45;;;;;;;21.15;57.04;99549.06;7308883;19;130312;-39
2021/12/31 01:52:27;;;;;;;25.50;3.97;;;;;;;21.17;57.25;99562.00;7310065;19;130278;-37
2021/12/31 01:54:53;;;;;;;12.13;1.75;;;;;;;21.10;57.73;99556.50;7309629;19;154573;-37
2021/12/31 01:57:20;;;;;;;9.07;1.35;;;;;;;21.13;57.02;99556.22;7309452;19;129683;-34
2021/12/31 01:59:45;;;;;;;14.95;2.10;;;;;;;21.10;57.74;99553.88;7308816;19;130781;-38
2021/12/31 02:02:10;;;;;;;18.52;2.35;;;;;;;21.01;58.19;99539.00;7310335;19;129679;-39
2021/12/31 02:04:40;;;;;;;15.43;2.00;;;;;;;21.07;58.24;99550.72;7309030;19;154110;-36
2021/12/31 02:07:07;;;;;;;12.65;1.83;;;;;;;21.07;57.80;99559.38;7306961;19;129073;-37
2021/12/31 02:09:40;;;;;;;11.07;1.77;;;;;;;21.08;57.87;99568.03;7308242;19;130862;-40
2021/12/31 02:12:06;;;;;;;17.40;2.25;;;;;;;21.09;57.20;99554.81;7308831;19;131091;-39
2021/12/31 02:14:32;;;;;;;7.15;1.20;;;;;;;20.97;57.41;99542.88;7309545;19;129918;-37
2021/12/31 02:16:58;;;;;;;16.23;2.20;;;;;;;21.02;57.38;99558.97;7308578;19;129744;-35
2021/12/31 02:19:27;;;;;;;8.65;1.88;;;;;;;21.04;58.06;99562.25;7307753;19;130149;-38
2021/12/31 02:21:52;;;;;;;13.95;2.13;;;;;;;20.94;57.81;99560.59;7307841;19;130944;-34
2021/12/31 02:24:19;;;;;;;11.50;1.65;;;;;;;20.98;57.85;99554.13;7309514;19;129185;-36
2021/12/31 02:26:44;;;;;;;12.80;1.98;;;;;;;20.99;57.45;99563.66;7307931;19;129183;-34
2021/12/31 02:29:09;;;;;;;31.52;5.43;;;;;;;21.05;57.83;99563.09;7302387;19;159196;-37
2021/12/31 02:31:34;;;;;;;13.15;1.92;;;;;;;21.00;58.13;99566.13;7294588;19;160484;-36
2021/12/31 02:34:00;;;;;;;22.27;3.77;;;;;;;20.95;58.14;99560.44;7309725;19;140076;-38
2021/12/31 02:36:25;;;;;;;5.03;1.27;;;;;;;20.90;58.31;99556.56;7306859;19;154215;-36
2021/12/31 02:38:50;;;;;;;10.30;1.30;;;;;;;21.00;57.87;99555.66;7306353;19;159658;-40
2021/12/31 02:41:16;;;;;;;10.48;1.58;;;;;;;20.95;58.18;99568.28;7308921;19;130378;-40
2021/12/31 02:43:41;;;;;;;15.98;2.38;;;;;;;21.00;58.46;99566.13;7310120;19;129631;-37
2021/12/31 02:46:07;;;;;;;13.13;1.80;;;;;;;21.05;57.89;99568.31;7305431;19;145334;-37
2021/12/31 02:48:32;;;;;;;11.65;1.50;;;;;;;20.99;57.77;99569.69;7308995;19;130442;-39
2021/12/31 02:51:00;;;;;;;13.88;2.10;;;;;;;20.99;57.65;99564.44;7307279;19;157480;-38
2021/12/31 02:53:49;;;;;;;13.60;1.98;;;;;;;21.11;58.37;99565.16;7308890;19;129531;-36
2021/12/31 02:56:16;;;;;;;9.95;1.42;;;;;;;20.98;58.03;99557.59;7309636;19;129042;-39
2021/12/31 02:58:43;;;;;;;11.02;1.70;;;;;;;20.95;57.78;99557.00;7306127;19;130286;-39
2021/12/31 03:01:09;;;;;;;11.77;1.63;;;;;;;20.95;57.63;99572.69;7307599;19;130663;-40
2021/12/31 03:03:36;;;;;;;13.10;2.28;;;;;;;20.95;57.71;99576.13;7308647;19;129237;-38
2021/12/31 03:06:02;;;;;;;16.77;2.40;;;;;;;20.93;58.03;99570.19;7308125;19;129823;-38
2021/12/31 03:08:30;;;;;;;14.30;2.05;;;;;;;20.95;58.34;99581.34;7306025;19;130142;-41
2021/12/31 03:10:56;;;;;;;10.45;1.50;;;;;;;20.92;57.87;99578.19;7308632;19;131748;-41
2021/12/31 03:13:23;;;;;;;19.33;3.20;;;;;;;20.94;57.82;99574.44;7308392;19;130143;-39
2021/12/31 03:15:50;;;;;;;19.35;3.28;;;;;;;20.94;58.19;99577.06;7307390;19;129522;-36
2021/12/31 03:18:16;;;;;;;14.48;2.10;;;;;;;20.93;57.71;99572.81;7307358;19;132036;-35
2021/12/31 03:20:46;;;;;;;13.05;2.03;;;;;;;20.95;58.27;99577.91;7305066;19;130903;-39
2021/12/31 03:23:12;;;;;;;25.20;3.95;;;;;;;20.93;57.87;99570.19;7312157;19;130302;-37
2021/12/31 03:25:37;;;;;;;9.60;1.45;;;;;;;20.90;57.54;99565.25;7313092;19;141242;-37
2021/12/31 03:28:03;;;;;;;14.60;2.00;;;;;;;20.97;57.58;99569.00;7312514;19;150912;-38
2021/12/31 03:30:28;;;;;;;12.73;1.73;;;;;;;20.94;57.88;99566.59;7315176;19;130418;-38
2021/12/31 03:32:54;;;;;;;8.37;1.33;;;;;;;20.84;58.27;99555.31;7313277;19;155064;-38
2021/12/31 03:35:19;;;;;;;12.73;1.60;;;;;;;20.94;57.88;99571.84;7313138;19;129995;-37
2021/12/31 03:37:44;;;;;;;17.33;2.47;;;;;;;20.93;58.05;99564.97;7314768;19;130518;-38
2021/12/31 03:40:11;;;;;;;14.73;2.40;;;;;;;20.92;57.69;99563.34;7311859;19;159604;-37
2021/12/31 03:42:36;;;;;;;10.10;1.53;;;;;;;20.89;57.86;99555.75;7314941;19;129213;-38
2021/12/31 03:45:03;;;;;;;16.55;2.20;;;;;;;20.91;58.10;99556.44;7314623;19;129471;-39
2021/12/31 03:47:28;;;;;;;10.48;1.58;;;;;;;20.93;57.59;99544.06;7310953;19;131226;-42
2021/12/31 03:49:53;;;;;;;8.23;1.13;;;;;;;20.92;57.83;99550.25;7305785;19;159332;-37
2021/12/31 03:52:19;;;;;;;16.98;2.92;;;;;;;20.99;58.15;99547.97;7312803;19;154184;-38
2021/12/31 03:54:44;;;;;;;18.77;2.60;;;;;;;20.98;58.02;99541.91;7311688;19;144203;-37
2021/12/31 03:57:09;;;;;;;21.42;2.95;;;;;;;20.99;57.39;99551.38;7309840;19;158370;-38
2021/12/31 03:59:34;;;;;;;10.57;1.43;;;;;;;21.03;57.41;99550.16;7307789;19;158659;-40
2021/12/31 04:02:00;;;;;;;14.53;2.07;;;;;;;21.07;57.54;99545.47;7312803;19;154923;-38
2021/12/31 04:04:25;;;;;;;9.45;1.38;;;;;;;21.10;57.18;99553.03;7312512;19;130273;-38
2021/12/31 04:06:51;;;;;;;14.75;2.05;;;;;;;21.09;57.11;99559.25;7312240;19;129795;-37
2021/12/31 04:09:16;;;;;;;12.93;1.77;;;;;;;21.12;57.15;99549.31;7311506;19;130285;-39
2021/12/31 04:11:41;;;;;;;12.23;1.77;;;;;;;21.10;57.61;99561.72;7312612;19;155782;-37
2021/12/31 04:14:07;;;;;;;17.15;2.60;;;;;;;21.14;57.09;99557.84;7310077;19;154114;-39
2021/12/31 04:16:32;;;;;;;20.10;3.10;;;;;;;21.11;57.15;99562.53;7310344;19;158359;-37
2021/12/31 04:18:57;;;;;;;19.17;2.75;;;;;;;21.08;57.81;99568.88;7312636;19;130981;-35
2021/12/31 04:21:24;;;;;;;15.57;1.95;;;;;;;21.07;57.48;99566.41;7311551;19;154853;-40
2021/12/31 04:24:04;;;;;;;18.52;3.17;;;;;;;21.07;57.29;99569.84;7313593;19;129036;-38
2021/12/31 04:26:30;;;;;;;15.18;2.35;;;;;;;21.05;57.12;99569.16;7312429;19;130302;-38
2021/12/31 04:28:55;;;;;;;30.77;5.75;;;;;;;20.98;57.47;99546.28;7302354;19;130323;-39
2021/12/31 04:31:21;;;;;;;7.43;1.08;;;;;;;21.02;57.90;99558.97;7305750;19;130239;-38
2021/12/31 04:33:46;;;;;;;20.07;3.13;;;;;;;21.05;57.53;99560.47;7309640;19;153990;-38
2021/12/31 04:36:11;;;;;;;21.00;3.50;;;;;;;21.01;57.45;99556.47;7310340;19;158339;-38
2021/12/31 04:38:37;;;;;;;13.55;1.85;;;;;;;21.02;57.91;99545.91;7312391;19;130637;-39
2021/12/31 04:41:03;;;;;;;10.90;1.67;;;;;;;21.01;57.78;99551.25;7312487;19;129088;-38
2021/12/31 04:43:28;;;;;;;14.13;2.10;;;;;;;21.00;57.58;99553.06;7313143;19;129069;-36
2021/12/31 04:45:53;;;;;;;15.18;2.10;;;;;;;20.99;57.70;99547.97;7310305;19;132477;-36
2021/12/31 04:48:19;;;;;;;10.48;1.45;;;;;;;20.98;57.71;99554.13;7311522;19;155026;-38
2021/12/31 04:50:44;;;;;;;12.40;1.93;;;;;;;21.00;58.12;99554.84;7311843;19;129639;-38
2021/12/31 04:53:09;;;;;;;14.43;1.97;;;;;;;20.89;58.24;99542.69;7312248;19;154539;-40
2021/12/31 04:55:34;;;;;;;10.27;1.77;;;;;;;20.98;57.70;99551.53;7308114;19;158091;-39
2021/12/31 04:58:00;;;;;;;16.00;2.30;;;;;;;20.96;58.16;99549.00;7308995;19;158392;-40
2021/12/31 05:00:25;;;;;;;14.10;1.73;;;;;;;20.95;58.10;99557.00;7311978;19;128662;-40
2021/12/31 05:02:50;;;;;;;14.93;2.00;;;;;;;20.93;57.58;99564.97;7312800;19;129566;-41
2021/12/31 05:05:16;;;;;;;10.48;1.35;;;;;;;20.93;57.78;99553.69;7310169;19;150705;-35
2021/12/31 05:07:41;;;;;;;17.67;2.70;;;;;;;20.96;57.45;99564.69;7308335;19;158374;-37
2021/12/31 05:10:07;;;;;;;20.15;2.55;;;;;;;20.98;57.82;99570.66;7311337;19;129989;-37
2021/12/31 05:12:35;;;;;;;11.90;1.80;;;;;;;20.92;57.38;99568.56;7313170;19;129503;-39
2021/12/31 05:15:01;;;;;;;6.10;1.05;;;;;;;20.98;57.85;99560.19;7311234;19;130457;-36
2021/12/31 05:17:27;;;;;;;7.53;1.08;;;;;;;21.00;58.02;99581.81;7309353;19;131183;-36
2021/12/31 05:19:52;;;;;;;14.27;1.95;;;;;;;21.05;57.89;99574.38;7308988;19;129061;-38
2021/12/31 05:22:17;;;;;;;11.38;1.70;;;;;;;21.00;57.77;99581.81;7309408;19;153293;-36
2021/12/31 05:24:43;;;;;;;16.50;2.20;;;;;;;21.02;57.51;99582.50;7309327;19;159083;-39
2021/12/31 05:27:08;;;;;;;12.13;1.95;;;;;;;21.07;57.82;99571.63;7308687;19;131209;-37
2021/12/31 05:29:34;;;;;;;11.52;1.58;;;;;;;21.04;58.04;99588.38;7308604;19;131885;-39
2021/12/31 05:32:00;;;;;;;16.27;2.20;;;;;;;21.01;57.33;99591.28;7312655;19;128911;-38
2021/12/31 05:34:25;;;;;;;11.00;1.50;;;;;;;21.02;57.72;99590.34;7311419;19;131249;-38
2021/12/31 05:36:51;;;;;;;9.40;1.63;;;;;;;21.00;57.45;99592.25;7310231;19;129478;-39
2021/12/31 05:39:16;;;;;;;15.63;2.08;;;;;;;20.97;58.07;99576.84;7308196;19;155077;-34
2021/12/31 05:41:41;;;;;;;15.05;2.17;;;;;;;20.98;57.60;99583.72;7309125;19;153989;-35
2021/12/31 05:44:07;;;;;;;18.23;2.72;;;;;;;20.95;58.07;99594.41;7310582;19;130088;-39
2021/12/31 05:46:33;;;;;;;9.53;1.27;;;;;;;20.95;57.94;99581.34;7304212;19;130450;-39
2021/12/31 05:48:58;;;;;;;15.02;2.42;;;;;;;20.96;58.04;99588.22;7309926;19;130038;-39
2021/12/31 05:51:26;;;;;;;10.68;1.38;;;;;;;20.89;58.15;99571.41;7309381;19;131862;-35
2021/12/31 05:53:52;;;;;;;22.95;3.08;;;;;;;20.96;57.98;99575.16;7310088;19;130717;-37
2021/12/31 05:56:17;;;;;;;8.07;1.95;;;;;;;20.90;58.13;99575.69;7309427;19;129619;-36
2021/12/31 05:58:42;;;;;;;13.10;2.20;;;;;;;20.91;57.86;99571.31;7308177;19;155775;-38
2021/12/31 06:01:07;;;;;;;8.83;1.40;;;;;;;20.83;58.18;99568.53;7308636;19;154059;-38
2021/12/31 06:03:33;;;;;;;14.63;1.97;;;;;;;20.97;58.38;99571.63;7308786;19;158434;-36
2021/12/31 06:05:58;;;;;;;27.88;4.03;;;;;;;20.95;57.98;99577.91;7306484;19;137450;-37
2021/12/31 06:08:23;;;;;;;12.88;1.75;;;;;;;20.86;58.05;99569.09;7308262;19;154493;-38
2021/12/31 06:10:48;;;;;;;19.63;3.10;;;;;;;20.88;57.99;99582.84;7308654;19;134698;-40
2021/12/31 06:13:13;;;;;;;11.63;2.05;;;;;;;20.95;58.29;99583.97;7309963;19;152423;-38
2021/12/31 06:15:41;;;;;;;6.40;1.17;;;;;;;20.91;58.44;99582.56;7307220;19;158660;-40
2021/12/31 06:18:07;;;;;;;13.52;1.85;;;;;;;20.96;58.26;99590.81;7308583;19;131104;-39
2021/12/31 06:20:35;;;;;;;14.02;1.85;;;;;;;20.98;58.02;99583.72;7309287;19;129219;-37
2021/12/31 06:23:00;;;;;;;15.88;2.13;;;;;;;21.00;57.72;99583.56;7311171;19;130093;-37
2021/12/31 06:25:26;;;;;;;4.20;0.63;;;;;;;20.99;57.68;99585.34;7307336;19;158730;-39
2021/12/31 06:27:51;;;;;;;14.95;2.05;;;;;;;20.98;58.20;99581.09;7308719;19;129267;-38
2021/12/31 06:30:17;;;;;;;23.17;4.28;;;;;;;20.97;57.71;99575.97;7299550;19;131679;-39
2021/12/31 06:32:42;;;;;;;18.42;2.75;;;;;;;20.97;58.22;99579.47;7302255;19;148556;-38
2021/12/31 06:35:07;;;;;;;11.20;1.77;;;;;;;20.95;57.66;99570.91;7307942;19;158521;-39
2021/12/31 06:37:33;;;;;;;9.80;1.35;;;;;;;20.98;57.76;99581.09;7309107;19;128845;-38
2021/12/31 06:40:03;;;;;;;11.13;1.52;;;;;;;20.95;58.28;99578.75;7306529;19;129566;-37
2021/12/31 06:42:28;;;;;;;10.32;1.48;;;;;;;21.02;57.96;99579.88;7310248;19;129527;-41
2021/12/31 06:44:54;;;;;;;8.13;1.23;;;;;;;21.00;57.79;99580.97;7306706;19;158806;-39
2021/12/31 06:47:19;;;;;;;12.20;1.42;;;;;;;21.01;58.40;99587.84;7305199;19;154553;-35
2021/12/31 06:49:44;;;;;;;14.23;1.92;;;;;;;21.01;57.54;99583.44;7305256;19;154369;-37
2021/12/31 06:52:09;;;;;;;14.93;2.00;;;;;;;20.88;57.66;99559.31;7305440;19;158755;-37
2021/12/31 06:54:36;;;;;;;11.90;1.63;;;;;;;20.96;58.00;99580.38;7307063;19;158480;-36
2021/12/31 06:57:02;;;;;;;21.55;3.10;;;;;;;20.98;58.43;99582.88;7307767;19;130495;-36
2021/12/31 06:59:27;;;;;;;7.28;1.00;;;;;;;20.92;57.83;99579.00;7314586;19;130231;-38
2021/12/31 07:01:52;;;;;;;13.07;2.00;;;;;;;21.02;57.87;99585.13;7315433;19;130247;-35
2021/12/31 07:04:18;;;;;;;12.48;1.52;;;;;;;20.97;57.55;99587.31;7315093;19;130377;-38
2021/12/31 07:06:43;;;;;;;15.18;2.35;;;;;;;20.98;57.98;99588.94;7311446;19;154450;-38
2021/12/31 07:09:08;;;;;;;15.60;2.22;;;;;;;20.95;58.06;99599.66;7311498;19;154106;-38
2021/12/31 07:11:33;;;;;;;10.43;1.58;;;;;;;20.97;57.84;99600.38;7309964;19;154837;-36
2021/12/31 07:13:59;;;;;;;15.82;3.00;;;;;;;20.97;58.20;99597.75;7312968;19;158785;-39
2021/12/31 07:16:24;;;;;;;13.27;1.80;;;;;;;20.90;57.71;99591.38;7315001;19;129148;-37
2021/12/31 07:18:49;;;;;;;15.35;2.28;;;;;;;20.96;57.69;99609.13;7312586;19;154028;-39
2021/12/31 07:21:15;;;;;;;22.30;3.78;;;;;;;20.98;57.76;99602.00;7313068;19;130269;-38
2021/12/31 07:23:40;;;;;;;18.33;2.33;;;;;;;21.04;57.56;99604.06;7315305;19;130694;-36
2021/12/31 07:26:06;;;;;;;19.95;2.70;;;;;;;21.03;58.04;99589.38;7314621;19;129208;-40
2021/12/31 07:28:32;;;;;;;15.77;2.10;;;;;;;20.92;57.79;99596.47;7315028;19;128894;-40
2021/12/31 07:30:57;;;;;;;22.92;3.20;;;;;;;21.01;58.47;99606.97;7312138;19;132479;-36
2021/12/31 07:33:24;;;;;;;12.00;1.52;;;;;;;20.99;58.05;99615.91;7313949;19;159160;-35
2021/12/31 07:35:51;;;;;;;15.35;2.40;;;;;;;20.99;58.27;99608.88;7308076;19;130734;-36
2021/12/31 07:38:22;;;;;;;11.15;1.73;;;;;;;20.98;57.89;99614.25;7314690;19;129759;-38
2021/12/31 07:40:51;;;;;;;22.58;3.58;;;;;;;21.02;59.13;99618.25;7312584;19;130214;-41
2021/12/31 07:43:16;;;;;;;11.90;2.10;;;;;;;21.00;57.88;99623.63;7315191;19;130398;-39
2021/12/31 07:45:42;;;;;;;20.40;2.90;;;;;;;21.01;58.83;99625.25;7312577;19;128850;-40
2021/12/31 07:48:07;;;;;;;16.17;2.33;;;;;;;21.00;58.25;99615.78;7311376;19;130059;-39
2021/12/31 07:50:33;;;;;;;11.80;1.52;;;;;;;20.99;58.11;99610.69;7314044;19;129547;-38
2021/12/31 07:52:59;;;;;;;14.63;2.05;;;;;;;21.01;58.54;99612.19;7313424;19;130515;-39
2021/12/31 07:55:24;;;;;;;10.20;1.42;;;;;;;21.04;58.19;99619.75;7311088;19;150940;-38
2021/12/31 07:57:50;;;;;;;20.27;2.35;;;;;;;21.04;58.19;99613.72;7308367;19;129355;-38
2021/12/31 08:00:15;;;;;;;26.02;4.47;;;;;;;21.01;58.51;99625.25;7306794;19;158383;-37
2021/12/31 08:02:41;;;;;;;19.88;3.05;;;;;;;20.97;57.84;99621.28;7309297;19;129737;-39
2021/12/31 08:05:07;;;;;;;27.77;4.25;;;;;;;20.99;58.75;99627.19;7308764;19;155224;-38
2021/12/31 08:07:32;;;;;;;11.75;1.67;;;;;;;20.98;57.91;99629.94;7308818;19;129580;-37
2021/12/31 08:09:57;;;;;;;17.23;2.30;;;;;;;20.93;58.22;99627.69;7304764;19;159844;-38
2021/12/31 08:12:22;;;;;;;13.13;2.17;;;;;;;20.93;58.31;99622.47;7308286;19;158453;-38
2021/12/31 08:14:48;;;;;;;19.15;2.75;;;;;;;20.90;58.25;99638.41;7308816;19;129847;-39
2021/12/31 08:17:13;;;;;;;26.38;3.45;;;;;;;20.94;58.33;99637.19;7310622;19;129769;-40
2021/12/31 08:19:38;;;;;;;19.80;3.13;;;;;;;20.94;58.40;99629.34;7306752;19;158886;-39
2021/12/31 08:22:04;;;;;;;21.42;2.70;;;;;;;20.85;58.39;99619.69;7309806;19;132376;-37
2021/12/31 08:24:29;;;;;;;17.10;2.85;;;;;;;20.93;57.77;99632.91;7308075;19;129713;-41
2021/12/31 08:26:54;;;;;;;28.50;3.03;;;;;;;20.97;55.59;99634.34;7308971;19;153070;-38
2021/12/31 08:29:20;;;;;;;35.13;5.67;;;;;;;20.95;55.92;99641.47;7303134;19;158322;-37
2021/12/31 08:31:45;;;;;;;20.88;3.08;;;;;;;21.01;55.90;99634.88;7296646;19;158435;-40
2021/12/31 08:34:11;;;;;;;31.80;4.10;;;;;;;21.02;55.98;99647.00;7307833;19;154599;-37
2021/12/31 08:36:37;;;;;;;14.53;2.27;;;;;;;21.00;56.60;99634.06;7308211;19;129734;-38
2021/12/31 08:39:04;;;;;;;21.02;3.15;;;;;;;21.08;56.88;99647.28;7307505;19;130893;-40
2021/12/31 08:41:30;;;;;;;26.08;3.30;;;;;;;21.08;56.76;99643.84;7310381;19;129580;-31
2021/12/31 08:43:56;;;;;;;22.08;3.75;;;;;;;21.05;57.27;99639.72;7307516;19;129998;-34
2021/12/31 08:46:21;;;;;;;16.60;2.50;;;;;;;21.06;57.03;99638.75;7308399;19;128995;-35
2021/12/31 08:48:46;;;;;;;34.60;4.43;;;;;;;21.03;57.08;99635.56;7304919;19;160224;-37
2021/12/31 08:51:12;;;;;;;9.48;1.55;;;;;;;21.04;56.68;99640.66;7306622;19;158277;-30
2021/12/31 08:53:37;;;;;;;21.73;3.40;;;;;;;21.05;56.81;99644.97;7309131;19;153370;-38
2021/12/31 08:56:02;;;;;;;18.57;2.43;;;;;;;21.04;57.70;99640.66;7309146;19;153922;-33
2021/12/31 08:58:28;;;;;;;21.88;3.38;;;;;;;21.08;57.95;99625.53;7309784;19;130417;-35
2021/12/31 09:00:53;;;;;;;12.90;1.80;;;;;;;21.09;57.04;99632.44;7308912;19;144045;-37
2021/12/31 09:03:18;;;;;;;28.15;3.90;;;;;;;21.06;57.27;99630.91;7307529;19;154416;-34
2021/12/31 09:05:43;;;;;;;15.48;2.42;;;;;;;20.99;57.76;99632.41;7308305;19;153954;-36
2021/12/31 09:08:09;;;;;;;25.63;3.95;;;;;;;21.00;57.69;99628.84;7302454;19;158413;-37
2021/12/31 09:10:34;;;;;;;12.18;1.70;;;;;;;20.93;57.50;99621.63;7312795;19;129313;-32
2021/12/31 09:12:59;;;;;;;12.07;1.98;;;;;;;20.99;57.05;99629.00;7307655;19;154666;-35
2021/12/31 09:15:25;;;;;;;9.90;1.58;;;;;;;21.00;57.72;99634.06;7311490;19;129675;-33
2021/12/31 09:17:50;;;;;;;20.95;2.97;;;;;;;21.02;57.14;99632.16;7308348;19;158307;-38
2021/12/31 09:20:15;;;;;;;23.98;3.58;;;;;;;21.05;57.54;99639.72;7308222;19;147890;-32
2021/12/31 09:22:40;;;;;;;15.75;2.40;;;;;;;21.09;57.37;99635.84;7312136;19;130075;-35
2021/12/31 09:25:06;;;;;;;25.33;3.50;;;;;;;21.12;56.98;99629.56;7307431;19;154072;-34
2021/12/31 09:27:32;;;;;;;18.55;2.53;;;;;;;21.09;57.45;99654.16;7307801;19;131624;-41
2021/12/31 09:29:57;;;;;;;15.05;2.22;;;;;;;21.10;57.58;99624.47;7302902;19;147412;-35
2021/12/31 09:32:22;;;;;;;11.68;1.63;;;;;;;21.12;56.85;99638.19;7308385;19;154738;-36
2021/12/31 09:34:48;;;;;;;22.30;3.60;;;;;;;21.09;57.46;99638.47;7309846;19;129107;-33
2021/12/31 09:37:15;;;;;;;14.43;2.30;;;;;;;21.10;57.58;99627.06;7308820;19;129822;-32
2021/12/31 09:39:40;;;;;;;;;;;;;;;21.11;57.78;99639.19;7308671;19;129619;-33
2021/12/31 09:42:06;;;;;;;14.07;2.10;;;;;;;21.04;57.51;99630.22;7309900;19;147481;-34
2021/12/31 09:44:36;;;;;;;14.77;2.45;;;;;;;21.02;57.47;99632.16;7311349;19;128934;-35
2021/12/31 09:47:07;;;;;;;15.95;2.13;;;;;;;21.07;57.17;99639.59;7311390;19;131892;-40
2021/12/31 09:49:34;;;;;;;13.38;2.22;;;;;;;21.05;57.42;99636.28;7307284;19;130637;-36
2021/12/31 09:52:01;;;;;;;18.85;2.70;;;;;;;21.07;57.83;99635.19;7310546;19;129199;-36
2021/12/31 09:54:26;;;;;;;25.00;4.35;;;;;;;21.10;57.26;99645.38;7307406;19;130126;-38
2021/12/31 09:56:51;;;;;;;16.77;2.60;;;;;;;21.12;57.46;99627.75;7309490;19;156864;-38
2021/12/31 09:59:16;;;;;;;9.88;1.55;;;;;;;21.11;57.69;99620.03;7309963;19;130776;-36
2021/12/31 10:01:51;;;;;;;7.07;1.50;;;;;;;21.00;57.87;99592.25;7312557;19;153865;-38
2021/12/31 10:04:17;;;;;;;10.63;1.83;;;;;;;21.08;57.49;99604.63;7312710;19;130207;-38
2021/12/31 10:07:08;;;;;;;9.90;1.58;;;;;;;21.06;57.38;99602.16;7313327;19;129594;-35
2021/12/31 10:09:35;;;;;;;11.00;1.55;;;;;;;21.02;57.17;99599.97;7310784;19;130047;-35
2021/12/31 10:12:01;;;;;;;13.88;2.05;;;;;;;21.01;57.45;99593.91;7313121;19;130061;-39
2021/12/31 10:14:38;;;;;;;15.00;2.30;;;;;;;20.92;57.60;99581.63;7313822;19;129470;-38
2021/12/31 10:17:05;;;;;;;14.97;2.33;;;;;;;21.06;57.89;99590.88;7314285;19;130544;-38
2021/12/31 10:19:31;;;;;;;8.43;1.48;;;;;;;21.04;57.70;99587.59;7311354;19;133266;-39
2021/12/31 10:21:56;;;;;;;12.13;1.63;;;;;;;21.06;57.63;99591.69;7315285;19;129187;-37
2021/12/31 10:24:32;;;;;;;7.25;1.67;;;;;;;21.08;57.81;99578.50;7312083;19;128807;-39
2021/12/31 10:27:00;;;;;;;13.60;2.78;;;;;;;21.10;57.52;99587.88;7313197;19;130939;-37
2021/12/31 10:29:26;;;;;;;27.85;5.05;;;;;;;21.13;57.51;99582.34;7307738;19;129896;-38
2021/12/31 10:31:53;;;;;;;12.77;1.88;;;;;;;21.12;57.23;99579.88;7301910;19;129590;-38
2021/12/31 10:34:24;;;;;;;;;;;;;;;21.10;57.51;99581.81;7318968;19;129405;-36
2021/12/31 10:36:49;;;;;;;18.05;2.63;;;;;;;21.11;56.98;99575.59;7320608;19;130342;-37
2021/12/31 10:39:20;;;;;;;14.20;2.80;;;;;;;21.13;57.07;99579.75;7316853;19;158693;-38
2021/12/31 10:41:51;;;;;;;7.30;1.50;;;;;;;21.10;57.83;99574.78;7320243;19;129241;-36
2021/12/31 10:44:17;;;;;;;15.90;2.45;;;;;;;21.07;57.20;99577.69;7320157;19;129547;-37
2021/12/31 10:46:42;;;;;;;14.82;2.40;;;;;;;21.01;58.01;99546.84;7319073;19;130451;-37
2021/12/31 10:49:11;;;;;;;23.83;3.95;;;;;;;21.12;57.12;99561.59;7314960;19;158379;-38
2021/12/31 10:51:46;;;;;;;5.22;0.88;;;;;;;21.12;58.10;99562.38;7320331;19;128911;-39
2021/12/31 10:54:28;;;;;;;15.27;2.28;;;;;;;21.07;57.34;99567.22;7318680;19;128990;-37
2021/12/31 10:56:54;;;;;;;8.63;1.50;;;;;;;21.05;57.88;99568.31;7319645;19;130121;-38
2021/12/31 10:59:19;;;;;;;9.10;1.33;;;;;;;21.05;57.92;99569.16;7317998;19;130656;-38
2021/12/31 11:01:44;;;;;;;13.83;2.37;;;;;;;21.04;57.83;99551.00;7319393;19;155659;-37
2021/12/31 11:04:11;;;;;;;5.07;1.13;;;;;;;21.03;58.07;99554.56;7317398;19;153989;-34
2021/12/31 11:06:40;;;;;;;17.65;2.38;;;;;;;21.02;57.66;99548.53;7319222;19;130170;-36
2021/12/31 11:09:07;;;;;;;14.45;2.35;;;;;;;21.02;57.81;99553.75;7316907;19;129518;-37
2021/12/31 11:11:34;;;;;;;9.63;1.40;;;;;;;21.00;58.23;99550.44;7320276;19;128990;-38
2021/12/31 11:14:00;;;;;;;13.50;1.83;;;;;;;21.07;57.40;99562.00;7317346;19;128968;-37
2021/12/31 11:16:25;;;;;;;9.47;1.53;;;;;;;21.00;57.53;99560.06;7318831;19;130163;-37